Time;durP1;ratioP1;P1;durP2;ratioP2;P2;SDS_P1;SDS_P2;PMS_P1;PMS_P2;Temp;Humidity;BMP_temperature;BMP_pressure;BME280_temperature;BME280_humidity;BME280_pressure;Samples;Min_cycle;Max_cycle;Signal;HPM_P1;HPM_P2
2023/02/10 00:01:44;;;;;;;41.33;30.20;;;;;;;;;;5091075;28;20344;-76
2023/02/10 00:04:13;;;;;;;43.97;31.70;;;;;;;;;;5091507;28;20202;-76
2023/02/10 00:06:41;;;;;;;41.13;28.70;;;;;;;;;;5091208;28;20302;-76
2023/02/10 00:09:08;;;;;;;44.07;30.67;;;;;;;;;;5091265;28;20201;-76
2023/02/10 00:14:21;;;;;;;41.77;29.57;;;;;;;;;;5095050;28;20624;-77
2023/02/10 00:16:50;;;;;;;41.13;29.27;;;;;;;;;;5094961;28;20673;-76
2023/02/10 00:19:19;;;;;;;41.83;29.33;;;;;;;;;;5095033;28;20200;-76
2023/02/10 00:21:46;;;;;;;45.90;30.03;;;;;;;;;;5094741;28;20320;-76
2023/02/10 00:24:13;;;;;;;42.60;29.53;;;;;;;;;;5094513;28;20292;-77
2023/02/10 00:26:40;;;;;;;41.57;29.87;;;;;;;;;;5094540;28;20273;-77
2023/02/10 00:29:08;;;;;;;59.27;44.90;;;;;;;;;;5095370;28;20284;-76
2023/02/10 00:31:35;;;;;;;43.83;32.80;;;;;;;;;;5094776;28;20232;-76
2023/02/10 00:34:02;;;;;;;44.53;31.60;;;;;;;;;;5094496;28;20305;-75
2023/02/10 00:36:30;;;;;;;45.53;31.13;;;;;;;;;;5094643;28;20661;-77
2023/02/10 00:38:58;;;;;;;44.77;30.63;;;;;;;;;;5094527;28;20303;-73
2023/02/10 00:41:25;;;;;;;46.00;30.33;;;;;;;;;;5094410;28;20311;-76
2023/02/10 00:43:53;;;;;;;54.83;37.03;;;;;;;;;;5094470;28;20224;-76
2023/02/10 00:46:21;;;;;;;47.60;34.57;;;;;;;;;;5094259;28;20644;-74
2023/02/10 00:48:48;;;;;;;48.33;35.23;;;;;;;;;;5094604;28;20686;-74
2023/02/10 00:51:16;;;;;;;45.83;32.07;;;;;;;;;;5094026;28;20287;-73
2023/02/10 00:53:44;;;;;;;42.77;32.23;;;;;;;;;;5094561;28;20277;-74
2023/02/10 00:56:12;;;;;;;49.97;34.77;;;;;;;;;;5094445;28;20607;-74
2023/02/10 00:58:39;;;;;;;46.33;34.77;;;;;;;;;;5094357;28;20288;-74
2023/02/10 01:01:07;;;;;;;41.30;30.27;;;;;;;;;;5094497;28;20225;-76
2023/02/10 01:03:34;;;;;;;48.00;32.00;;;;;;;;;;5093721;28;20678;-76
2023/02/10 01:06:01;;;;;;;40.13;30.67;;;;;;;;;;5093958;28;20283;-76
2023/02/10 01:08:28;;;;;;;45.43;31.73;;;;;;;;;;5094012;28;20294;-76
2023/02/10 01:11:03;;;;;;;42.00;31.83;;;;;;;;;;5093874;28;20295;-74
2023/02/10 01:13:33;;;;;;;44.53;32.07;;;;;;;;;;5094118;28;20205;-73
2023/02/10 01:16:00;;;;;;;43.60;31.60;;;;;;;;;;5093843;28;20207;-76
2023/02/10 01:18:28;;;;;;;44.33;33.93;;;;;;;;;;5094178;28;20225;-74
2023/02/10 01:20:55;;;;;;;43.77;32.17;;;;;;;;;;5093497;28;20284;-75
2023/02/10 01:23:22;;;;;;;45.33;32.37;;;;;;;;;;5092731;28;20733;-74
2023/02/10 01:25:49;;;;;;;49.23;34.43;;;;;;;;;;5093720;28;20308;-74
2023/02/10 01:28:18;;;;;;;48.37;35.07;;;;;;;;;;5093782;28;20276;-74
2023/02/10 01:30:45;;;;;;;50.93;34.73;;;;;;;;;;5093521;28;20239;-74
2023/02/10 01:33:12;;;;;;;48.63;34.53;;;;;;;;;;5093803;28;20260;-73
2023/02/10 01:35:39;;;;;;;48.60;34.90;;;;;;;;;;5093554;28;20235;-74
2023/02/10 01:38:07;;;;;;;47.07;33.07;;;;;;;;;;5093526;28;20244;-76
2023/02/10 01:40:34;;;;;;;45.80;32.87;;;;;;;;;;5093732;28;20242;-77
2023/02/10 01:43:01;;;;;;;45.00;33.23;;;;;;;;;;5093488;28;20232;-73
2023/02/10 01:45:32;;;;;;;56.17;41.10;;;;;;;;;;5093404;28;20300;-75
2023/02/10 01:47:59;;;;;;;48.73;36.93;;;;;;;;;;5094055;28;20202;-78
2023/02/10 01:50:28;;;;;;;45.20;33.17;;;;;;;;;;5092874;28;20295;-78
2023/02/10 01:52:56;;;;;;;42.93;32.27;;;;;;;;;;5093552;28;20244;-75
2023/02/10 01:55:25;;;;;;;45.73;32.63;;;;;;;;;;5093129;28;20292;-73
2023/02/10 01:57:54;;;;;;;47.67;33.73;;;;;;;;;;5093321;28;20288;-76
2023/02/10 02:00:21;;;;;;;44.93;32.87;;;;;;;;;;5093725;28;20244;-76
2023/02/10 02:02:50;;;;;;;44.57;32.67;;;;;;;;;;5092722;28;20282;-77
2023/02/10 02:05:22;;;;;;;44.60;32.53;;;;;;;;;;5092385;28;20232;-77
2023/02/10 02:07:50;;;;;;;46.93;32.53;;;;;;;;;;5093367;28;20602;-77
2023/02/10 02:10:17;;;;;;;45.67;32.00;;;;;;;;;;5092853;28;20328;-73
2023/02/10 02:12:50;;;;;;;42.60;31.07;;;;;;;;;;5092643;28;20291;-76
2023/02/10 02:15:22;;;;;;;46.40;32.53;;;;;;;;;;5092840;28;20198;-76
2023/02/10 02:17:53;;;;;;;44.20;31.03;;;;;;;;;;5093238;28;20314;-77
2023/02/10 02:20:41;;;;;;;41.90;31.27;;;;;;;;;;5092531;28;20627;-77
2023/02/10 02:23:27;;;;;;;44.87;32.17;;;;;;;;;;5049845;28;20320;-74
2023/02/10 02:26:03;;;;;;;46.13;32.03;;;;;;;;;;5049958;28;20292;-76
2023/02/10 02:28:34;;;;;;;43.83;31.43;;;;;;;;;;5049897;28;20319;-76
2023/02/10 02:31:26;;;;;;;44.07;31.37;;;;;;;;;;5049647;28;20292;-77
2023/02/10 02:33:57;;;;;;;47.43;32.33;;;;;;;;;;5049261;28;20285;-76
2023/02/10 02:36:27;;;;;;;45.70;31.23;;;;;;;;;;5048841;28;20297;-77
2023/02/10 02:39:00;;;;;;;46.80;32.63;;;;;;;;;;5049612;28;20230;-76
2023/02/10 02:41:27;;;;;;;45.40;32.30;;;;;;;;;;5049958;28;20640;-77
2023/02/10 02:43:55;;;;;;;44.70;32.00;;;;;;;;;;5049215;28;20265;-77
2023/02/10 02:46:25;;;;;;;45.43;31.80;;;;;;;;;;5049526;28;20336;-76
2023/02/10 02:48:58;;;;;;;43.63;30.97;;;;;;;;;;5049037;28;20292;-77
2023/02/10 02:51:28;;;;;;;43.83;31.37;;;;;;;;;;5049418;28;20226;-77
2023/02/10 02:53:59;;;;;;;48.00;32.90;;;;;;;;;;5049333;28;20298;-77
2023/02/10 02:56:32;;;;;;;45.27;31.80;;;;;;;;;;5049273;28;20643;-76
2023/02/10 02:59:03;;;;;;;45.90;31.57;;;;;;;;;;5049875;28;20194;-76
2023/02/10 03:01:32;;;;;;;45.83;32.53;;;;;;;;;;5092330;28;20285;-77
2023/02/10 03:04:02;;;;;;;46.63;31.53;;;;;;;;;;5091543;28;20322;-76
2023/02/10 03:06:30;;;;;;;46.63;32.13;;;;;;;;;;5091974;28;20204;-76
2023/02/10 03:08:57;;;;;;;42.17;31.33;;;;;;;;;;5091724;28;20290;-76
2023/02/10 03:11:24;;;;;;;43.13;30.27;;;;;;;;;;5091717;28;20753;-77
2023/02/10 03:13:51;;;;;;;42.23;29.37;;;;;;;;;;5092084;28;20293;-76
2023/02/10 03:16:18;;;;;;;40.50;28.80;;;;;;;;;;5091341;28;20301;-76
2023/02/10 03:18:46;;;;;;;44.13;31.53;;;;;;;;;;5091490;28;20641;-76
2023/02/10 03:21:14;;;;;;;44.80;31.20;;;;;;;;;;5091743;28;20640;-77
2023/02/10 03:23:41;;;;;;;42.80;30.60;;;;;;;;;;5091575;28;20327;-76
2023/02/10 03:26:09;;;;;;;41.90;30.87;;;;;;;;;;5091546;28;20319;-76
2023/02/10 03:28:36;;;;;;;40.27;30.00;;;;;;;;;;5091684;28;20293;-77
2023/02/10 03:31:03;;;;;;;41.30;29.20;;;;;;;;;;5090493;28;20285;-76
2023/02/10 03:33:31;;;;;;;42.47;30.07;;;;;;;;;;5092011;28;20266;-76
2023/02/10 03:35:58;;;;;;;40.37;28.93;;;;;;;;;;5091288;28;20235;-76
2023/02/10 03:38:27;;;;;;;41.53;30.30;;;;;;;;;;5083243;28;20674;-76
2023/02/10 03:40:55;;;;;;;40.50;28.77;;;;;;;;;;5077254;28;20292;-76
2023/02/10 03:43:23;;;;;;;39.43;27.90;;;;;;;;;;5070961;28;20328;-76
2023/02/10 03:45:50;;;;;;;42.63;28.53;;;;;;;;;;5070722;28;20236;-76
2023/02/10 03:48:17;;;;;;;40.17;28.60;;;;;;;;;;5071034;28;20718;-76
2023/02/10 03:50:44;;;;;;;41.60;28.83;;;;;;;;;;5071072;28;20199;-77
2023/02/10 03:53:12;;;;;;;40.87;28.53;;;;;;;;;;5071306;28;20425;-77
2023/02/10 03:55:40;;;;;;;40.70;29.07;;;;;;;;;;5071627;28;20289;-76
2023/02/10 03:58:07;;;;;;;39.40;27.70;;;;;;;;;;5070924;28;20228;-76
2023/02/10 04:00:34;;;;;;;39.10;27.97;;;;;;;;;;5070719;28;20292;-76
2023/02/10 04:03:02;;;;;;;40.20;28.37;;;;;;;;;;5070996;28;20323;-77
2023/02/10 04:05:29;;;;;;;40.33;28.80;;;;;;;;;;5070914;28;20288;-76
2023/02/10 04:07:56;;;;;;;39.60;28.97;;;;;;;;;;5070810;28;20655;-76
2023/02/10 04:10:23;;;;;;;39.77;28.20;;;;;;;;;;5071002;28;20635;-76
2023/02/10 04:12:52;;;;;;;42.00;29.07;;;;;;;;;;5087704;28;20291;-76
2023/02/10 04:15:19;;;;;;;38.67;28.17;;;;;;;;;;5091140;28;20292;-77
2023/02/10 04:17:46;;;;;;;40.43;28.97;;;;;;;;;;5090944;28;20287;-76
2023/02/10 04:20:15;;;;;;;38.83;27.83;;;;;;;;;;5091121;28;20308;-77
2023/02/10 04:22:42;;;;;;;42.13;29.97;;;;;;;;;;5090866;28;20819;-76
2023/02/10 04:25:10;;;;;;;41.63;28.63;;;;;;;;;;5091091;28;20228;-76
2023/02/10 04:27:37;;;;;;;43.90;30.23;;;;;;;;;;5090848;28;20332;-77
2023/02/10 04:30:07;;;;;;;40.67;29.97;;;;;;;;;;5090742;28;20300;-77
2023/02/10 04:32:34;;;;;;;41.93;28.77;;;;;;;;;;5090719;28;20286;-76
2023/02/10 04:35:01;;;;;;;40.73;29.40;;;;;;;;;;5090909;28;20201;-76
2023/02/10 04:37:29;;;;;;;39.77;29.27;;;;;;;;;;5091309;28;20292;-76
2023/02/10 04:39:56;;;;;;;38.67;29.00;;;;;;;;;;5091139;28;20297;-76
2023/02/10 04:42:29;;;;;;;41.07;30.27;;;;;;;;;;5090558;28;20301;-76
2023/02/10 04:44:56;;;;;;;42.33;29.93;;;;;;;;;;5090830;28;20205;-76
2023/02/10 04:47:25;;;;;;;43.77;31.43;;;;;;;;;;5091200;28;20197;-76
2023/02/10 04:49:52;;;;;;;43.47;30.40;;;;;;;;;;5090612;28;20765;-76
2023/02/10 04:52:19;;;;;;;43.10;30.27;;;;;;;;;;5091006;28;20198;-76
2023/02/10 04:54:47;;;;;;;41.97;30.23;;;;;;;;;;5090706;28;20244;-76
2023/02/10 04:57:14;;;;;;;41.40;29.77;;;;;;;;;;5090245;28;20294;-76
2023/02/10 04:59:41;;;;;;;38.17;29.93;;;;;;;;;;5093614;28;20745;-76
2023/02/10 05:02:08;;;;;;;40.53;29.73;;;;;;;;;;5094020;28;20721;-76
2023/02/10 05:04:37;;;;;;;41.43;30.00;;;;;;;;;;5094477;28;20672;-77
2023/02/10 05:07:04;;;;;;;40.90;30.37;;;;;;;;;;5094442;28;20294;-75
2023/02/10 05:09:31;;;;;;;42.67;30.70;;;;;;;;;;5094038;28;20236;-76
2023/02/10 05:11:58;;;;;;;43.10;30.37;;;;;;;;;;5093874;28;20300;-76
2023/02/10 05:14:25;;;;;;;41.17;29.97;;;;;;;;;;5093628;28;20235;-76
2023/02/10 05:16:52;;;;;;;43.50;30.17;;;;;;;;;;5094359;28;20288;-77
2023/02/10 05:19:20;;;;;;;42.30;30.13;;;;;;;;;;5093788;28;20300;-76
2023/02/10 05:21:48;;;;;;;41.73;29.90;;;;;;;;;;5094059;28;20218;-76
2023/02/10 05:24:15;;;;;;;43.03;29.53;;;;;;;;;;5094211;28;20311;-76
2023/02/10 05:26:43;;;;;;;42.30;30.37;;;;;;;;;;5092921;28;20325;-76
2023/02/10 05:29:10;;;;;;;38.07;29.30;;;;;;;;;;5094134;28;20285;-75
2023/02/10 05:31:37;;;;;;;40.83;30.10;;;;;;;;;;5094046;28;20299;-76
2023/02/10 05:34:04;;;;;;;40.13;29.57;;;;;;;;;;5093747;28;20284;-76
2023/02/10 05:36:31;;;;;;;42.73;30.93;;;;;;;;;;5094191;28;20239;-77
2023/02/10 05:41:50;;;;;;;40.57;29.83;;;;;;;;;;5082392;28;20560;-76
2023/02/10 05:44:17;;;;;;;41.17;30.40;;;;;;;;;;5093789;28;20274;-76
2023/02/10 05:46:44;;;;;;;41.77;30.23;;;;;;;;;;5094071;28;20296;-76
2023/02/10 05:49:11;;;;;;;40.97;30.33;;;;;;;;;;5093245;28;20229;-76
2023/02/10 05:51:39;;;;;;;49.60;35.87;;;;;;;;;;5093275;28;20296;-77
2023/02/10 05:54:07;;;;;;;49.17;36.47;;;;;;;;;;5093304;28;20288;-76
2023/02/10 05:56:35;;;;;;;41.80;31.67;;;;;;;;;;5093027;28;20296;-76
2023/02/10 05:59:02;;;;;;;43.63;32.50;;;;;;;;;;5093272;28;20305;-77
2023/02/10 06:01:29;;;;;;;45.07;31.17;;;;;;;;;;5093455;28;20286;-76
2023/02/10 06:03:57;;;;;;;43.73;30.63;;;;;;;;;;5092850;28;20846;-77
2023/02/10 06:06:24;;;;;;;41.83;29.50;;;;;;;;;;5093192;28;20225;-75
2023/02/10 06:08:51;;;;;;;43.40;30.47;;;;;;;;;;5092537;28;20588;-76
2023/02/10 06:11:20;;;;;;;44.17;29.93;;;;;;;;;;5092642;28;20293;-76
2023/02/10 06:13:47;;;;;;;41.93;30.20;;;;;;;;;;5092764;28;20297;-75
2023/02/10 06:16:14;;;;;;;42.57;30.03;;;;;;;;;;5092847;28;20200;-75
2023/02/10 06:18:42;;;;;;;42.73;31.33;;;;;;;;;;5092539;28;20289;-75
2023/02/10 06:21:09;;;;;;;45.57;29.47;;;;;;;;;;5092068;28;20199;-76
2023/02/10 06:23:36;;;;;;;40.73;29.47;;;;;;;;;;5092639;28;20824;-75
2023/02/10 06:26:03;;;;;;;41.70;28.10;;;;;;;;;;5091912;28;20667;-76
2023/02/10 06:28:32;;;;;;;40.70;29.83;;;;;;;;;;5092651;28;20221;-76
2023/02/10 06:30:59;;;;;;;43.40;30.17;;;;;;;;;;5092536;28;20292;-76
2023/02/10 06:33:26;;;;;;;43.77;30.13;;;;;;;;;;5092750;28;20288;-76
2023/02/10 06:35:54;;;;;;;40.97;28.90;;;;;;;;;;5092262;28;20727;-74
2023/02/10 06:38:21;;;;;;;43.97;30.53;;;;;;;;;;5088998;28;20225;-75
2023/02/10 06:40:48;;;;;;;44.30;30.50;;;;;;;;;;5084273;28;20309;-76
2023/02/10 06:43:15;;;;;;;43.67;30.90;;;;;;;;;;5091596;28;20243;-75
2023/02/10 06:45:44;;;;;;;45.00;30.57;;;;;;;;;;5092118;28;20291;-76
2023/02/10 06:48:11;;;;;;;43.03;30.13;;;;;;;;;;5091694;28;20292;-76
2023/02/10 06:50:39;;;;;;;43.83;30.17;;;;;;;;;;5092258;28;20557;-76
2023/02/10 06:53:06;;;;;;;40.27;29.27;;;;;;;;;;5092223;28;20196;-75
2023/02/10 06:55:34;;;;;;;42.00;29.77;;;;;;;;;;5091908;28;20292;-74
2023/02/10 06:58:02;;;;;;;42.87;29.93;;;;;;;;;;5092516;28;20197;-75
2023/02/10 07:00:31;;;;;;;45.43;30.27;;;;;;;;;;5092070;28;20291;-75
2023/02/10 07:03:00;;;;;;;45.50;30.87;;;;;;;;;;5091954;28;20274;-75
2023/02/10 07:05:27;;;;;;;42.13;30.07;;;;;;;;;;5092184;28;20323;-75
2023/02/10 07:07:55;;;;;;;43.17;29.80;;;;;;;;;;5092579;28;20291;-76
2023/02/10 07:10:22;;;;;;;42.60;30.70;;;;;;;;;;5091713;28;20189;-75
2023/02/10 07:12:51;;;;;;;42.53;29.70;;;;;;;;;;5091940;28;20296;-75
2023/02/10 07:15:18;;;;;;;45.33;31.93;;;;;;;;;;5091796;28;20197;-75
2023/02/10 07:17:45;;;;;;;45.30;31.33;;;;;;;;;;5091939;28;20193;-75
2023/02/10 07:20:14;;;;;;;42.47;30.33;;;;;;;;;;5089372;28;20206;-74
2023/02/10 07:22:41;;;;;;;43.47;30.83;;;;;;;;;;5091160;28;20255;-75
2023/02/10 07:25:08;;;;;;;50.97;34.20;;;;;;;;;;5099941;28;20324;-75
2023/02/10 07:27:36;;;;;;;48.47;34.33;;;;;;;;;;5090050;28;20657;-76
2023/02/10 07:30:03;;;;;;;50.73;35.13;;;;;;;;;;5092074;28;20296;-75
2023/02/10 07:32:30;;;;;;;44.13;32.50;;;;;;;;;;5091167;28;20217;-75
2023/02/10 07:34:57;;;;;;;46.93;32.00;;;;;;;;;;5091346;28;20295;-75
2023/02/10 07:37:26;;;;;;;43.20;31.13;;;;;;;;;;5091048;28;20255;-74
2023/02/10 07:39:53;;;;;;;47.07;32.90;;;;;;;;;;5091446;28;20193;-75
2023/02/10 07:42:21;;;;;;;50.87;35.23;;;;;;;;;;5091073;28;20291;-75
2023/02/10 07:44:48;;;;;;;48.13;33.23;;;;;;;;;;5088842;28;20312;-75
2023/02/10 07:47:15;;;;;;;51.30;34.77;;;;;;;;;;5082799;28;20239;-75
2023/02/10 07:49:42;;;;;;;48.43;35.50;;;;;;;;;;5091618;28;20216;-75
2023/02/10 07:52:09;;;;;;;55.37;36.03;;;;;;;;;;5090784;28;20237;-76
2023/02/10 07:54:39;;;;;;;50.13;34.10;;;;;;;;;;5091158;28;20289;-76
2023/02/10 07:57:06;;;;;;;47.37;33.23;;;;;;;;;;5091712;28;20236;-75
2023/02/10 07:59:33;;;;;;;47.67;33.77;;;;;;;;;;5091354;28;20206;-73
2023/02/10 08:02:00;;;;;;;47.03;32.20;;;;;;;;;;5091016;28;20241;-75
2023/02/10 08:04:27;;;;;;;45.53;33.00;;;;;;;;;;5091373;28;20228;-75
2023/02/10 08:06:57;;;;;;;46.40;33.77;;;;;;;;;;5090724;28;20280;-76
2023/02/10 08:09:24;;;;;;;45.30;31.13;;;;;;;;;;5091523;28;20292;-75
2023/02/10 08:11:52;;;;;;;45.77;33.13;;;;;;;;;;5090748;28;20292;-76
2023/02/10 08:14:22;;;;;;;45.60;32.03;;;;;;;;;;5091281;28;20633;-76
2023/02/10 08:16:49;;;;;;;47.37;32.87;;;;;;;;;;5091162;28;20252;-75
2023/02/10 08:19:16;;;;;;;46.37;32.50;;;;;;;;;;5091510;28;20289;-76
2023/02/10 08:21:43;;;;;;;46.80;32.83;;;;;;;;;;5090774;28;20202;-75
2023/02/10 08:24:10;;;;;;;46.17;32.93;;;;;;;;;;5091644;28;20315;-75
2023/02/10 08:26:38;;;;;;;47.27;34.63;;;;;;;;;;5091153;28;20334;-75
2023/02/10 08:29:07;;;;;;;50.07;34.40;;;;;;;;;;5091296;28;20251;-75
2023/02/10 08:31:34;;;;;;;45.63;32.23;;;;;;;;;;5090904;28;20297;-76
2023/02/10 08:34:01;;;;;;;45.83;32.40;;;;;;;;;;5095387;28;20292;-75
2023/02/10 08:36:28;;;;;;;43.97;31.17;;;;;;;;;;5094641;28;20294;-76
2023/02/10 08:38:55;;;;;;;44.53;30.33;;;;;;;;;;5094999;28;20301;-76
2023/02/10 08:41:23;;;;;;;44.17;31.00;;;;;;;;;;5094974;28;20285;-75
2023/02/10 08:43:50;;;;;;;42.27;31.07;;;;;;;;;;5094814;28;20200;-75
2023/02/10 08:46:18;;;;;;;45.57;31.83;;;;;;;;;;5094834;28;20624;-75
2023/02/10 08:48:45;;;;;;;41.23;30.47;;;;;;;;;;5094790;28;20387;-76
2023/02/10 08:51:14;;;;;;;40.27;29.77;;;;;;;;;;5094327;28;20298;-76
2023/02/10 08:53:41;;;;;;;43.93;29.63;;;;;;;;;;5094249;28;20285;-75
2023/02/10 08:56:11;;;;;;;41.50;29.83;;;;;;;;;;5094390;28;20201;-75
2023/02/10 08:58:40;;;;;;;41.53;28.30;;;;;;;;;;5094460;28;20232;-75
2023/02/10 09:01:09;;;;;;;40.37;29.30;;;;;;;;;;5094115;28;20285;-75
2023/02/10 09:03:38;;;;;;;40.20;27.37;;;;;;;;;;5094559;28;20291;-74
2023/02/10 09:06:05;;;;;;;38.13;27.83;;;;;;;;;;5093862;28;20329;-75
2023/02/10 09:08:32;;;;;;;38.97;27.23;;;;;;;;;;5094575;28;20229;-75
2023/02/10 09:10:59;;;;;;;38.33;27.80;;;;;;;;;;5094201;28;20229;-75
2023/02/10 09:13:27;;;;;;;38.13;27.37;;;;;;;;;;5094132;28;20297;-76
2023/02/10 09:15:54;;;;;;;39.70;27.87;;;;;;;;;;5093932;28;20297;-75
2023/02/10 09:18:21;;;;;;;35.70;26.87;;;;;;;;;;5094472;28;20289;-76
2023/02/10 09:20:49;;;;;;;41.13;27.80;;;;;;;;;;5093911;28;20195;-76
2023/02/10 09:23:17;;;;;;;37.83;26.80;;;;;;;;;;5093802;28;20240;-74
2023/02/10 09:25:44;;;;;;;39.93;27.83;;;;;;;;;;5093746;28;20668;-76
2023/02/10 09:28:11;;;;;;;39.20;28.27;;;;;;;;;;5093756;28;20611;-75
2023/02/10 09:30:38;;;;;;;38.67;28.57;;;;;;;;;;5093759;28;20618;-75
2023/02/10 09:33:05;;;;;;;38.47;26.80;;;;;;;;;;5094241;28;20301;-76
2023/02/10 09:35:32;;;;;;;38.87;27.07;;;;;;;;;;5093761;28;20229;-76
2023/02/10 09:38:01;;;;;;;35.70;25.70;;;;;;;;;;5093739;28;20338;-76
2023/02/10 09:40:31;;;;;;;36.03;26.67;;;;;;;;;;5093695;28;20190;-76
2023/02/10 09:43:05;;;;;;;35.30;26.17;;;;;;;;;;5093788;28;20285;-75
2023/02/10 09:45:36;;;;;;;35.23;25.63;;;;;;;;;;5093084;28;20681;-76
2023/02/10 09:48:08;;;;;;;36.80;26.50;;;;;;;;;;5093316;28;20282;-76
2023/02/10 09:50:41;;;;;;;37.87;26.33;;;;;;;;;;5093517;28;20195;-76
2023/02/10 09:53:14;;;;;;;42.10;27.17;;;;;;;;;;5093260;28;20292;-76
2023/02/10 09:55:42;;;;;;;37.50;25.97;;;;;;;;;;5093518;28;20226;-75
2023/02/10 09:58:15;;;;;;;35.50;25.63;;;;;;;;;;5093579;28;20249;-76
2023/02/10 10:00:43;;;;;;;34.90;24.90;;;;;;;;;;5093535;28;20240;-76
2023/02/10 10:03:14;;;;;;;31.27;23.40;;;;;;;;;;5092716;28;20233;-76
2023/02/10 10:05:47;;;;;;;31.87;23.27;;;;;;;;;;5093178;28;20226;-75
2023/02/10 10:08:20;;;;;;;31.57;22.23;;;;;;;;;;5093184;28;20248;-76
2023/02/10 10:10:48;;;;;;;30.03;23.60;;;;;;;;;;5092977;28;20268;-76
2023/02/10 10:13:16;;;;;;;28.63;22.20;;;;;;;;;;5093228;28;20206;-76
2023/02/10 10:15:48;;;;;;;30.93;23.10;;;;;;;;;;5092747;28;20888;-76
2023/02/10 10:18:19;;;;;;;30.57;22.20;;;;;;;;;;5092852;28;20230;-76
2023/02/10 10:20:51;;;;;;;25.90;19.93;;;;;;;;;;5092843;28;20621;-75
2023/02/10 10:23:31;;;;;;;24.87;20.30;;;;;;;;;;5092778;28;20194;-76
2023/02/10 10:26:02;;;;;;;21.63;18.67;;;;;;;;;;5092296;28;20282;-76
2023/02/10 10:28:34;;;;;;;24.43;19.03;;;;;;;;;;5092623;28;20289;-76
2023/02/10 10:31:03;;;;;;;27.00;19.53;;;;;;;;;;5093101;28;20742;-76
2023/02/10 10:33:33;;;;;;;24.90;19.33;;;;;;;;;;5092320;28;20226;-76
2023/02/10 10:36:01;;;;;;;25.20;19.73;;;;;;;;;;5092657;28;20297;-75
2023/02/10 10:38:32;;;;;;;24.80;20.40;;;;;;;;;;5092350;28;20197;-76
2023/02/10 10:41:01;;;;;;;25.37;20.53;;;;;;;;;;5092736;28;20202;-76
2023/02/10 10:43:29;;;;;;;24.67;19.90;;;;;;;;;;5092803;28;20229;-76
2023/02/10 10:46:00;;;;;;;25.63;20.90;;;;;;;;;;5091996;28;20329;-76
2023/02/10 10:48:28;;;;;;;25.30;20.23;;;;;;;;;;5092185;28;20234;-75
2023/02/10 10:50:56;;;;;;;25.80;20.83;;;;;;;;;;5092329;28;20285;-76
2023/02/10 10:53:29;;;;;;;27.63;21.50;;;;;;;;;;5092480;28;20237;-76
2023/02/10 10:55:58;;;;;;;27.57;21.00;;;;;;;;;;5091145;28;20233;-75
2023/02/10 10:58:27;;;;;;;28.47;20.93;;;;;;;;;;5092117;28;20198;-76
2023/02/10 11:00:55;;;;;;;25.90;20.13;;;;;;;;;;5091692;28;20294;-75
2023/02/10 11:03:23;;;;;;;27.63;21.40;;;;;;;;;;5092327;28;20241;-76
2023/02/10 11:06:02;;;;;;;26.83;21.90;;;;;;;;;;5091964;28;20268;-76
2023/02/10 11:08:31;;;;;;;30.53;22.07;;;;;;;;;;5092002;28;20241;-75
2023/02/10 11:11:01;;;;;;;26.60;21.17;;;;;;;;;;5091863;28;20295;-76
2023/02/10 11:13:30;;;;;;;26.93;21.03;;;;;;;;;;5092010;28;20287;-76
2023/02/10 11:16:02;;;;;;;24.40;19.83;;;;;;;;;;5091855;28;20230;-75
2023/02/10 11:18:30;;;;;;;23.90;19.27;;;;;;;;;;5091661;28;20194;-76
2023/02/10 11:20:58;;;;;;;25.77;20.23;;;;;;;;;;5092357;28;20243;-75
2023/02/10 11:23:26;;;;;;;23.97;18.30;;;;;;;;;;5091798;28;20241;-76
2023/02/10 11:25:58;;;;;;;25.07;18.67;;;;;;;;;;5091675;28;20226;-76
2023/02/10 11:28:28;;;;;;;24.13;19.50;;;;;;;;;;5091902;28;20285;-77
2023/02/10 11:30:57;;;;;;;22.33;19.20;;;;;;;;;;5091217;28;20307;-76
2023/02/10 11:33:25;;;;;;;27.87;20.13;;;;;;;;;;5091568;28;20278;-76
2023/02/10 11:35:54;;;;;;;24.83;20.20;;;;;;;;;;5091678;28;20381;-76
2023/02/10 11:38:23;;;;;;;25.23;20.23;;;;;;;;;;5092065;28;20282;-76
2023/02/10 11:40:54;;;;;;;25.27;20.10;;;;;;;;;;5091759;28;20267;-76
2023/02/10 11:43:23;;;;;;;25.80;20.83;;;;;;;;;;5091448;28;20730;-76
2023/02/10 11:45:56;;;;;;;25.53;21.03;;;;;;;;;;5091089;28;20321;-76
2023/02/10 11:48:23;;;;;;;24.63;20.07;;;;;;;;;;5091637;28;20286;-75
2023/02/10 11:51:01;;;;;;;24.37;20.53;;;;;;;;;;5091689;28;20289;-76
2023/02/10 11:53:30;;;;;;;26.03;21.77;;;;;;;;;;5091333;28;20289;-76
2023/02/10 11:55:59;;;;;;;27.23;21.87;;;;;;;;;;5091637;28;20289;-75
2023/02/10 11:58:58;;;;;;;27.33;21.03;;;;;;;;;;5090779;28;20293;-76
2023/02/10 12:01:33;;;;;;;26.03;21.23;;;;;;;;;;5089161;28;20201;-76
2023/02/10 12:04:04;;;;;;;24.13;20.47;;;;;;;;;;5091535;28;20222;-75
2023/02/10 12:06:35;;;;;;;24.50;20.10;;;;;;;;;;5091155;28;20675;-76
2023/02/10 12:09:06;;;;;;;24.27;19.20;;;;;;;;;;5095477;28;20198;-76
2023/02/10 12:11:39;;;;;;;22.27;18.50;;;;;;;;;;5095557;28;20230;-75
2023/02/10 12:14:14;;;;;;;20.50;17.07;;;;;;;;;;5095078;28;20281;-76
2023/02/10 12:16:49;;;;;;;19.77;16.73;;;;;;;;;;5095433;28;20222;-75
2023/02/10 12:19:22;;;;;;;20.63;16.90;;;;;;;;;;5095344;28;20753;-75
2023/02/10 12:21:58;;;;;;;22.93;18.13;;;;;;;;;;5095211;28;20218;-76
2023/02/10 12:24:34;;;;;;;21.93;17.20;;;;;;;;;;5094973;28;20289;-75
2023/02/10 12:27:05;;;;;;;20.17;17.10;;;;;;;;;;5095036;28;20340;-76
2023/02/10 12:29:41;;;;;;;21.43;16.07;;;;;;;;;;5095213;28;20297;-76
2023/02/10 12:32:15;;;;;;;21.00;16.23;;;;;;;;;;5095121;28;20240;-76
2023/02/10 12:34:49;;;;;;;17.73;14.43;;;;;;;;;;5094840;28;20281;-76
2023/02/10 12:37:24;;;;;;;19.37;16.10;;;;;;;;;;5094842;28;20195;-76
2023/02/10 12:39:56;;;;;;;18.10;14.23;;;;;;;;;;5095161;28;20248;-76
2023/02/10 12:42:35;;;;;;;17.20;13.50;;;;;;;;;;5094426;28;20190;-76
2023/02/10 12:45:06;;;;;;;19.17;14.63;;;;;;;;;;5094689;28;20221;-76
2023/02/10 12:47:41;;;;;;;17.53;14.57;;;;;;;;;;5094886;28;20285;-76
2023/02/10 12:50:22;;;;;;;18.90;16.43;;;;;;;;;;5094361;28;20293;-75
2023/02/10 12:52:53;;;;;;;18.60;14.90;;;;;;;;;;5094464;28;20198;-77
2023/02/10 12:55:23;;;;;;;16.93;14.80;;;;;;;;;;5094506;28;20280;-76
2023/02/10 12:57:52;;;;;;;19.73;16.48;;;;;;;;;;5094124;28;20241;-76
2023/02/10 13:00:23;;;;;;;18.25;15.23;;;;;;;;;;5094483;28;20584;-76
2023/02/10 13:02:53;;;;;;;16.75;15.00;;;;;;;;;;5094651;28;20611;-76
2023/02/10 13:05:21;;;;;;;18.83;15.30;;;;;;;;;;5094188;28;20316;-76
2023/02/10 13:07:51;;;;;;;17.85;14.23;;;;;;;;;;5094421;28;20369;-76
2023/02/10 13:10:21;;;;;;;15.48;13.10;;;;;;;;;;5094631;28;20230;-76
2023/02/10 13:12:49;;;;;;;14.80;13.00;;;;;;;;;;5093484;28;20290;-76
2023/02/10 13:15:20;;;;;;;16.27;13.25;;;;;;;;;;5094203;28;20305;-76
2023/02/10 13:17:48;;;;;;;17.20;13.37;;;;;;;;;;5094458;28;20444;-77
2023/02/10 13:20:23;;;;;;;16.10;14.17;;;;;;;;;;5093240;28;20201;-76
2023/02/10 13:22:56;;;;;;;18.83;14.83;;;;;;;;;;5094030;28;20737;-76
2023/02/10 13:25:28;;;;;;;16.00;13.60;;;;;;;;;;5093613;28;20225;-76
2023/02/10 13:28:02;;;;;;;14.83;13.27;;;;;;;;;;5094011;28;20330;-76
2023/02/10 13:30:48;;;;;;;16.47;13.03;;;;;;;;;;5093565;28;20264;-76
2023/02/10 13:33:19;;;;;;;13.63;12.20;;;;;;;;;;5094043;28;20203;-76
2023/02/10 13:35:48;;;;;;;18.58;14.13;;;;;;;;;;5093629;28;20630;-76
2023/02/10 13:38:18;;;;;;;16.73;14.40;;;;;;;;;;5093756;28;20674;-76
2023/02/10 13:40:47;;;;;;;19.43;14.47;;;;;;;;;;5093621;28;20218;-76
2023/02/10 13:43:21;;;;;;;15.90;13.17;;;;;;;;;;5094081;28;20229;-76
2023/02/10 13:45:51;;;;;;;15.80;13.70;;;;;;;;;;5093605;28;20257;-76
2023/02/10 13:48:23;;;;;;;14.90;13.30;;;;;;;;;;5093724;28;20225;-76
2023/02/10 13:50:53;;;;;;;17.00;13.50;;;;;;;;;;5093750;28;20201;-76
2023/02/10 13:53:29;;;;;;;18.30;13.77;;;;;;;;;;5093776;28;20199;-76
2023/02/10 13:56:04;;;;;;;17.07;13.80;;;;;;;;;;5092846;28;20198;-76
2023/02/10 13:58:33;;;;;;;16.40;13.23;;;;;;;;;;5093413;28;20229;-76
2023/02/10 14:01:01;;;;;;;16.17;13.30;;;;;;;;;;5093498;28;20711;-76
2023/02/10 14:03:29;;;;;;;16.97;14.07;;;;;;;;;;5093520;28;20218;-75
2023/02/10 14:05:59;;;;;;;17.97;14.17;;;;;;;;;;5093172;28;20337;-75
2023/02/10 14:08:28;;;;;;;16.37;13.60;;;;;;;;;;5092827;28;20671;-76
2023/02/10 14:10:58;;;;;;;21.23;14.13;;;;;;;;;;5093291;28;20218;-76
2023/02/10 14:13:27;;;;;;;16.60;13.67;;;;;;;;;;5092935;28;20240;-75
2023/02/10 14:15:58;;;;;;;17.37;13.27;;;;;;;;;;5090026;28;20259;-76
2023/02/10 14:18:26;;;;;;;17.63;14.60;;;;;;;;;;5088341;28;20294;-76
2023/02/10 14:20:56;;;;;;;17.60;13.57;;;;;;;;;;5093014;28;20722;-76
2023/02/10 14:23:25;;;;;;;15.67;13.73;;;;;;;;;;5092052;28;20202;-76
2023/02/10 14:25:57;;;;;;;19.13;13.87;;;;;;;;;;5092795;28;20249;-76
2023/02/10 14:28:25;;;;;;;17.03;13.17;;;;;;;;;;5097395;28;20296;-76
2023/02/10 14:30:54;;;;;;;13.63;12.07;;;;;;;;;;5112950;28;20608;-75
2023/02/10 14:33:23;;;;;;;13.53;11.10;;;;;;;;;;5112694;28;20611;-75